Time;durP1;ratioP1;P1;durP2;ratioP2;P2;SDS_P1;SDS_P2;PMS_P1;PMS_P2;Temp;Humidity;BMP_temperature;BMP_pressure;BME280_temperature;BME280_humidity;BME280_pressure;Samples;Min_cycle;Max_cycle;Signal;HPM_P1;HPM_P2
2023/08/21 00:00:03;;;;;;;;;0.33;0.33;;;;;22.59;71.50;102177.25;5091265;27;46097;-74
2023/08/21 00:02:29;;;;;;;;;1.33;1.00;;;;;22.54;72.22;102190.25;5090023;27;45596;-75
2023/08/21 00:04:54;;;;;;;;;0.67;0.67;;;;;22.52;72.36;102200.25;5095551;27;45343;-75
2023/08/21 00:07:19;;;;;;;;;2.00;2.00;;;;;22.46;71.65;102189.94;5095833;27;45323;-75
2023/08/21 00:09:45;;;;;;;;;0.00;0.00;;;;;22.46;71.62;102182.72;5081862;27;45422;-74
2023/08/21 00:12:10;;;;;;;;;0.67;0.67;;;;;22.32;71.52;102183.75;5092083;27;45303;-75
2023/08/21 00:14:35;;;;;;;;;2.67;1.00;;;;;22.25;72.61;102170.84;5090367;27;45346;-74
2023/08/21 00:17:02;;;;;;;;;1.00;1.00;;;;;22.22;72.06;102169.22;5093681;27;47387;-74
2023/08/21 00:19:28;;;;;;;;;1.00;1.00;;;;;22.20;73.40;102167.63;5081269;27;45311;-75
2023/08/21 00:21:53;;;;;;;;;1.00;1.00;;;;;22.31;73.81;102176.66;5088760;27;45560;-74
2023/08/21 00:24:19;;;;;;;;;0.67;0.67;;;;;22.30;73.18;102180.31;5082553;27;45280;-75
2023/08/21 00:26:44;;;;;;;;;0.67;0.67;;;;;22.30;71.77;102177.63;5063816;28;45314;-74
2023/08/21 00:29:10;;;;;;;;;1.00;1.00;;;;;22.25;72.58;102177.09;5083305;27;45279;-74
2023/08/21 00:31:35;;;;;;;;;0.67;0.00;;;;;22.26;72.94;102180.66;5099241;27;45246;-75
2023/08/21 00:34:00;;;;;;;;;2.00;1.00;;;;;22.18;72.92;102172.28;5065470;28;46140;-74
2023/08/21 00:36:25;;;;;;;;;0.33;0.33;;;;;22.02;72.35;102156.38;5079523;27;45546;-74
2023/08/21 00:38:51;;;;;;;;;0.33;0.33;;;;;22.14;75.04;102174.34;5078965;27;45395;-74
2023/08/21 00:41:16;;;;;;;;;5.00;1.00;;;;;22.16;74.76;102182.28;5080063;27;45338;-74
2023/08/21 00:43:41;;;;;;;;;1.00;1.00;;;;;22.13;73.20;102178.00;5078722;27;45288;-74
2023/08/21 00:46:07;;;;;;;;;3.33;0.00;;;;;22.09;72.68;102171.09;5081915;27;45477;-74
2023/08/21 00:48:33;;;;;;;;;0.00;0.00;;;;;22.10;73.00;102177.38;5090099;27;46346;-74
2023/08/21 00:50:59;;;;;;;;;4.00;1.00;;;;;22.06;74.36;102170.47;5079728;27;46493;-74
2023/08/21 00:53:25;;;;;;;;;0.00;0.00;;;;;22.08;74.10;102176.63;5082106;27;45434;-74
2023/08/21 00:55:50;;;;;;;;;2.67;1.33;;;;;22.03;74.64;102176.94;5089659;27;45364;-74
2023/08/21 00:58:16;;;;;;;;;1.00;0.67;;;;;21.96;73.29;102164.91;5078293;27;45552;-74
2023/08/21 01:00:47;;;;;;;;;2.33;0.67;;;;;21.98;74.49;102160.28;5082566;27;45394;-74
2023/08/21 01:03:12;;;;;;;;;2.00;1.00;;;;;21.83;73.51;102145.19;5086000;27;45454;-75
2023/08/21 01:05:37;;;;;;;;;2.00;1.00;;;;;21.89;74.63;102158.22;5096917;27;45418;-75
2023/08/21 01:08:05;;;;;;;;;1.67;1.67;;;;;21.93;73.82;102178.59;5091404;27;45965;-74
2023/08/21 01:10:42;;;;;;;;;1.00;1.00;;;;;21.94;74.79;102184.84;5091773;27;45529;-75
2023/08/21 01:13:32;;;;;;;;;1.67;1.00;;;;;21.95;74.88;102181.19;5080143;27;45474;-74
2023/08/21 01:15:59;;;;;;;;;0.00;0.00;;;;;21.90;73.88;102184.22;5079958;27;45356;-75
2023/08/21 01:18:26;;;;;;;;;0.33;0.33;;;;;21.80;74.27;102181.28;5085860;27;47401;-75
2023/08/21 01:20:52;;;;;;;;;1.00;1.00;;;;;21.79;75.45;102187.63;5085353;27;45287;-74
2023/08/21 01:23:29;;;;;;;;;3.00;1.00;;;;;21.74;74.60;102172.78;5091499;27;45501;-75
2023/08/21 01:25:54;;;;;;;;;1.00;1.00;;;;;21.77;75.06;102189.59;5085960;27;45620;-74
2023/08/21 01:28:20;;;;;;;;;2.00;0.00;;;;;21.79;76.78;102189.50;5089546;27;52752;-74
2023/08/21 01:30:46;;;;;;;;;1.00;0.67;;;;;21.79;76.08;102195.72;5086805;27;45363;-74
2023/08/21 01:33:14;;;;;;;;;1.00;0.00;;;;;21.78;75.51;102188.63;5086978;27;45378;-74
2023/08/21 01:35:40;;;;;;;;;1.00;1.00;;;;;21.66;76.76;102172.50;5078611;27;45374;-74
2023/08/21 01:38:06;;;;;;;;;2.00;2.00;;;;;21.76;77.28;102187.88;5083076;27;46279;-74
2023/08/21 01:40:32;;;;;;;;;4.00;0.00;;;;;21.77;78.45;102200.38;5087473;27;45435;-74
2023/08/21 01:42:57;;;;;;;;;1.33;0.00;;;;;21.68;77.40;102184.00;5078666;27;45257;-74
2023/08/21 01:45:22;;;;;;;;;2.33;1.00;;;;;21.67;77.64;102195.75;5078868;27;49431;-75
2023/08/21 01:47:48;;;;;;;;;2.00;2.00;;;;;21.68;78.72;102198.34;5083000;27;45525;-74
2023/08/21 01:50:13;;;;;;;;;1.00;1.00;;;;;21.67;77.64;102193.06;5100701;27;45490;-74
2023/08/21 01:52:38;;;;;;;;;0.00;0.00;;;;;21.65;77.93;102201.25;5088313;27;45238;-74
2023/08/21 01:55:07;;;;;;;;;0.67;0.67;;;;;21.61;77.79;102188.09;5088548;27;45510;-75
2023/08/21 01:57:32;;;;;;;;;0.67;0.00;;;;;21.59;79.38;102203.53;5093782;27;48199;-74
2023/08/21 01:59:57;;;;;;;;;0.33;0.33;;;;;21.57;79.25;102189.28;5085994;27;45679;-74
2023/08/21 02:02:23;;;;;;;;;0.33;0.00;;;;;21.54;78.46;102193.06;5089276;27;45498;-74
2023/08/21 02:04:48;;;;;;;;;3.33;1.00;;;;;21.51;79.33;102195.13;5085082;27;45522;-75
2023/08/21 02:07:14;;;;;;;;;2.33;1.00;;;;;21.42;79.30;102177.78;5093999;27;46124;-75
2023/08/21 02:09:39;;;;;;;;;3.33;0.67;;;;;21.37;78.95;102176.41;5081108;27;45572;-75
2023/08/21 02:12:04;;;;;;;;;1.00;1.00;;;;;21.44;79.29;102193.81;5092722;27;51146;-74
2023/08/21 02:14:30;;;;;;;;;2.00;1.00;;;;;21.40;79.52;102185.09;5089481;27;45353;-75
2023/08/21 02:16:55;;;;;;;;;1.67;1.00;;;;;21.41;80.24;102191.34;5090574;27;45394;-74
2023/08/21 02:19:20;;;;;;;;;0.67;0.67;;;;;21.37;80.66;102188.00;5090648;27;45506;-75
2023/08/21 02:21:46;;;;;;;;;0.67;0.67;;;;;21.29;79.82;102188.56;5099967;27;45331;-74
2023/08/21 02:24:11;;;;;;;;;2.33;1.00;;;;;21.30;80.52;102190.28;5101429;27;45370;-74
2023/08/21 02:26:36;;;;;;;;;3.00;1.00;;;;;21.20;80.20;102172.22;5090437;27;52022;-74
2023/08/21 02:29:03;;;;;;;;;0.33;0.33;;;;;21.24;79.27;102190.69;5093492;27;45455;-74
2023/08/21 02:31:28;;;;;;;;;2.33;2.00;;;;;21.21;80.28;102190.06;5085437;27;45490;-74
2023/08/21 02:33:54;;;;;;;;;3.00;1.33;;;;;21.21;82.33;102192.75;5084621;27;45526;-75
2023/08/21 02:36:19;;;;;;;;;2.00;1.00;;;;;21.20;82.30;102191.88;5080436;27;46138;-74
2023/08/21 02:38:44;;;;;;;;;1.00;1.00;;;;;21.16;83.81;102182.31;5082477;27;45430;-74
2023/08/21 02:41:10;;;;;;;;;1.33;0.00;;;;;21.15;84.44;102190.47;5083403;27;50650;-74
2023/08/21 02:43:35;;;;;;;;;3.00;1.33;;;;;21.04;83.92;102183.13;5085300;27;45556;-74
2023/08/21 02:46:00;;;;;;;;;0.00;0.00;;;;;21.02;85.78;102184.19;5092513;27;45229;-74
2023/08/21 02:48:26;;;;;;;;;1.00;1.00;;;;;21.04;85.12;102193.88;5084620;27;45361;-74
2023/08/21 02:50:51;;;;;;;;;2.00;1.00;;;;;20.98;84.54;102188.06;5091369;27;45463;-75
2023/08/21 02:53:16;;;;;;;;;2.00;2.00;;;;;20.92;84.59;102183.97;5088445;27;45335;-74
2023/08/21 02:55:42;;;;;;;;;2.00;1.00;;;;;20.95;85.54;102194.50;5084566;27;45503;-74
2023/08/21 02:58:07;;;;;;;;;0.67;0.67;;;;;20.92;85.07;102183.97;5083127;27;45300;-75
2023/08/21 03:00:32;;;;;;;;;1.00;1.00;;;;;20.95;85.41;102193.66;5080907;27;45092;-74
2023/08/21 03:02:58;;;;;;;;;0.67;0.33;;;;;20.93;86.21;102191.09;5094102;27;53127;-74
2023/08/21 03:05:23;;;;;;;;;2.00;1.00;;;;;20.92;85.38;102183.97;5095300;27;45365;-74
2023/08/21 03:07:48;;;;;;;;;3.00;1.00;;;;;20.93;85.56;102190.22;5085195;27;45435;-74
2023/08/21 03:10:14;;;;;;;;;3.00;1.00;;;;;20.93;84.84;102188.38;5085048;27;45403;-74
2023/08/21 03:12:39;;;;;;;;;1.33;1.33;;;;;20.86;84.00;102183.53;5082593;27;45367;-74
2023/08/21 03:15:05;;;;;;;;;1.00;1.00;;;;;20.81;83.98;102183.81;5083384;27;46425;-74
2023/08/21 03:17:30;;;;;;;;;3.00;2.00;;;;;20.73;83.37;102183.50;5066365;27;45433;-74
2023/08/21 03:19:55;;;;;;;;;2.00;2.00;;;;;20.81;85.78;102185.69;5087059;27;45418;-74
2023/08/21 03:22:21;;;;;;;;;4.00;2.00;;;;;20.78;86.85;102192.97;5097317;27;45419;-73
2023/08/21 03:24:46;;;;;;;;;2.00;2.00;;;;;20.73;85.99;102187.06;5083344;27;45212;-73
2023/08/21 03:27:15;;;;;;;;;1.00;1.00;;;;;20.72;87.72;102181.78;5069424;27;45365;-73
2023/08/21 03:29:40;;;;;;;;;1.33;0.67;;;;;20.73;85.49;102188.88;5061554;28;45528;-73
2023/08/21 03:32:05;;;;;;;;;1.67;1.67;;;;;20.66;87.42;102183.06;5090442;27;45562;-73
2023/08/21 03:34:31;;;;;;;;;1.00;1.00;;;;;20.68;86.44;102186.50;5082975;27;45432;-72
2023/08/21 03:36:56;;;;;;;;;1.00;1.00;;;;;20.69;86.98;102192.72;5086070;27;47488;-73
2023/08/21 03:39:21;;;;;;;;;2.00;1.33;;;;;20.69;88.91;102182.84;5079305;27;51763;-74
2023/08/21 03:41:46;;;;;;;;;1.00;1.00;;;;;20.67;89.31;102194.69;5087043;27;50607;-73
2023/08/21 03:44:12;;;;;;;;;2.00;2.00;;;;;20.64;88.77;102205.63;5090383;27;45989;-73
2023/08/21 03:46:37;;;;;;;;;3.00;1.67;;;;;20.63;90.29;102209.28;5097911;27;45283;-74
2023/08/21 03:49:02;;;;;;;;;2.00;0.00;;;;;20.60;89.22;102209.50;5096797;27;45499;-72
2023/08/21 03:51:28;;;;;;;;;1.00;1.00;;;;;20.53;89.69;102197.41;5084155;27;45445;-73
2023/08/21 03:53:53;;;;;;;;;1.00;1.00;;;;;20.55;88.80;102201.72;5087311;27;46205;-73
2023/08/21 03:56:19;;;;;;;;;4.33;1.33;;;;;20.48;89.71;102196.88;5094109;27;45412;-73
2023/08/21 03:58:44;;;;;;;;;4.00;2.00;;;;;20.49;90.85;102198.56;5090305;27;45335;-73
2023/08/21 04:01:10;;;;;;;;;2.67;2.67;;;;;20.46;90.43;102199.66;5085226;27;45327;-74
2023/08/21 04:03:35;;;;;;;;;2.00;2.00;;;;;20.33;91.76;102179.06;5095512;27;45426;-73
2023/08/21 04:06:01;;;;;;;;;2.00;2.00;;;;;20.42;88.68;102194.59;5079512;27;45394;-73
2023/08/21 04:08:26;;;;;;;;;1.67;1.67;;;;;20.39;91.24;102205.53;5078202;27;45376;-73
2023/08/21 04:10:53;;;;;;;;;3.33;2.00;;;;;20.37;91.11;102204.78;5084805;27;45391;-74
2023/08/21 04:13:18;;;;;;;;;5.33;2.33;;;;;20.34;89.89;102207.66;5087538;27;45324;-73
2023/08/21 04:15:45;;;;;;;;;4.00;3.00;;;;;20.32;91.67;102210.44;5079270;27;45304;-73
2023/08/21 04:18:10;;;;;;;;;1.33;1.33;;;;;20.22;91.71;102199.41;5090400;27;45329;-73
2023/08/21 04:20:35;;;;;;;;;4.67;2.00;;;;;20.31;90.97;102214.09;5085058;27;46017;-74
2023/08/21 04:23:01;;;;;;;;;2.00;2.00;;;;;20.28;91.87;102208.94;5080131;27;45559;-74
2023/08/21 04:25:26;;;;;;;;;2.00;1.00;;;;;20.27;92.08;102212.56;5091896;27;45761;-73
2023/08/21 04:27:51;;;;;;;;;2.67;2.67;;;;;20.25;91.29;102225.22;5090165;27;45462;-74
2023/08/21 04:30:17;;;;;;;;;3.00;2.00;;;;;20.10;92.04;102196.66;5084232;27;46271;-73
2023/08/21 04:32:42;;;;;;;;;2.00;2.00;;;;;20.20;93.55;102228.19;5083222;27;46196;-73
2023/08/21 04:35:08;;;;;;;;;3.33;2.00;;;;;20.13;91.97;102215.25;5078989;27;45321;-73
2023/08/21 04:37:34;;;;;;;;;5.00;3.00;;;;;20.10;94.10;102220.81;5079032;27;45304;-73
2023/08/21 04:39:59;;;;;;;;;3.33;3.00;;;;;20.09;95.46;102222.66;5079827;27;45344;-74
2023/08/21 04:42:24;;;;;;;;;2.00;2.00;;;;;20.07;95.27;102226.41;5086437;27;46196;-73
2023/08/21 04:44:50;;;;;;;;;2.00;2.00;;;;;19.98;95.85;102225.19;5082777;27;45299;-74
2023/08/21 04:47:22;;;;;;;;;2.00;1.00;;;;;20.01;95.43;102234.84;5088221;27;45653;-73
2023/08/21 04:49:49;;;;;;;;;2.67;2.00;;;;;19.98;96.88;102237.75;5080368;27;45423;-74
2023/08/21 04:52:14;;;;;;;;;3.00;3.00;;;;;19.91;95.93;102233.72;5098679;27;45327;-74
2023/08/21 04:54:40;;;;;;;;;3.33;2.00;;;;;19.90;95.23;102237.34;5097498;27;45330;-73
2023/08/21 04:57:05;;;;;;;;;2.67;1.67;;;;;19.80;96.37;102231.69;5087726;27;45487;-73
2023/08/21 04:59:30;;;;;;;;;4.00;2.67;;;;;19.85;95.70;102248.41;5081878;27;45478;-73
2023/08/21 05:01:56;;;;;;;;;4.00;2.00;;;;;19.84;96.35;102245.78;5082311;27;45343;-73
2023/08/21 05:04:21;;;;;;;;;3.33;2.33;;;;;19.84;96.39;102246.66;5086372;27;45514;-74
2023/08/21 05:06:46;;;;;;;;;2.00;2.00;;;;;19.83;96.02;102249.47;5089553;27;45629;-73
2023/08/21 05:09:12;;;;;;;;;3.33;2.00;;;;;19.77;98.29;102231.88;5082218;28;50231;-73
2023/08/21 05:11:37;;;;;;;;;3.00;2.00;;;;;19.81;97.48;102249.53;5091417;27;50771;-73
2023/08/21 05:14:03;;;;;;;;;1.00;1.00;;;;;19.78;97.23;102249.75;5082951;27;45265;-74
2023/08/21 05:16:28;;;;;;;;;2.67;1.33;;;;;19.68;97.61;102222.59;5092401;27;45288;-74
2023/08/21 05:18:53;;;;;;;;;3.00;3.00;;;;;19.78;96.95;102247.06;5086724;27;45499;-73
2023/08/21 05:21:19;;;;;;;;;2.67;2.00;;;;;19.76;97.71;102247.13;5086880;27;45284;-74
2023/08/21 05:23:45;;;;;;;;;5.00;2.00;;;;;19.65;98.64;102235.34;5105386;27;45559;-73
2023/08/21 05:26:10;;;;;;;;;2.33;1.67;;;;;19.75;98.29;102248.13;5091437;27;45458;-74
2023/08/21 05:28:35;;;;;;;;;2.00;1.00;;;;;19.75;100.00;102240.06;5085842;27;45505;-74
2023/08/21 05:31:01;;;;;;;;;4.33;4.00;;;;;19.74;100.00;102254.44;5085288;27;46265;-74
2023/08/21 05:33:26;;;;;;;;;5.00;2.67;;;;;19.73;98.24;102251.84;5070843;28;45231;-74
2023/08/21 05:35:51;;;;;;;;;3.00;1.00;;;;;19.74;97.90;102258.94;5085699;27;45842;-74
2023/08/21 05:38:17;;;;;;;;;2.33;2.00;;;;;19.72;97.47;102244.75;5090496;27;45405;-74
2023/08/21 05:40:42;;;;;;;;;3.33;2.00;;;;;19.79;98.48;102251.47;5090606;27;45410;-74
2023/08/21 05:43:08;;;;;;;;;2.33;1.00;;;;;19.84;97.52;102259.22;5089080;27;45394;-74
2023/08/21 05:45:33;;;;;;;;;2.00;2.00;;;;;19.71;99.24;102237.66;5082799;27;45495;-74
2023/08/21 05:47:59;;;;;;;;;1.33;1.00;;;;;19.86;99.33;102249.25;5093332;27;45408;-73
2023/08/21 05:50:24;;;;;;;;;1.00;1.00;;;;;19.88;96.07;102260.75;5084883;27;46294;-74
2023/08/21 05:52:49;;;;;;;;;6.67;4.00;;;;;19.89;100.00;102258.00;5088228;27;45765;-74
2023/08/21 05:55:15;;;;;;;;;3.00;2.33;;;;;19.95;97.94;102262.97;5083524;27;46901;-74
2023/08/21 05:57:40;;;;;;;;;1.67;1.67;;;;;19.95;100.00;102260.28;5071658;27;45956;-73
2023/08/21 06:00:08;;;;;;;;;6.00;4.00;;;;;20.00;100.00;102257.28;5090616;27;45420;-73
2023/08/21 06:02:34;;;;;;;;;2.67;2.33;;;;;20.08;99.68;102263.06;5092265;27;45442;-74
2023/08/21 06:04:59;;;;;;;;;3.67;2.67;;;;;20.11;100.00;102266.41;5090850;27;45411;-73
2023/08/21 06:07:25;;;;;;;;;6.00;3.00;;;;;20.09;99.34;102268.31;5093636;27;45503;-73
2023/08/21 06:09:50;;;;;;;;;2.00;2.00;;;;;20.17;100.00;102266.00;5090050;27;45423;-74
2023/08/21 06:12:15;;;;;;;;;2.67;0.00;;;;;20.19;100.00;102274.81;5090332;27;51285;-73
2023/08/21 06:14:41;;;;;;;;;1.33;1.33;;;;;20.20;98.29;102271.19;5080885;27;45448;-73
2023/08/21 06:17:06;;;;;;;;;2.00;2.00;;;;;20.27;96.85;102280.63;5082418;27;45506;-74
2023/08/21 06:19:31;;;;;;;;;2.67;2.00;;;;;20.29;94.74;102283.19;5084691;27;46912;-74
2023/08/21 06:21:57;;;;;;;;;2.00;1.67;;;;;20.32;93.96;102287.53;5091287;27;45490;-73
2023/08/21 06:24:23;;;;;;;;;2.00;2.00;;;;;20.31;95.27;102270.53;5096501;27;45456;-73
2023/08/21 06:26:48;;;;;;;;;1.00;1.00;;;;;20.35;95.49;102280.13;5093701;27;45275;-74
2023/08/21 06:29:14;;;;;;;;;1.33;1.00;;;;;20.43;97.16;102282.31;5100850;27;46011;-74
2023/08/21 06:31:39;;;;;;;;;2.00;2.00;;;;;20.43;98.32;102266.19;5094462;27;45395;-73
2023/08/21 06:34:05;;;;;;;;;2.00;1.00;;;;;20.51;99.80;102266.56;5087214;27;45446;-74
2023/08/21 06:36:30;;;;;;;;;2.00;1.00;;;;;20.58;90.95;102270.56;5091454;27;45460;-73
2023/08/21 06:38:56;;;;;;;;;1.67;1.67;;;;;20.62;90.89;102264.00;5088878;27;45498;-74
2023/08/21 06:41:21;;;;;;;;;2.33;2.33;;;;;20.67;93.63;102269.97;5081134;27;45859;-73
2023/08/21 06:43:47;;;;;;;;;2.33;1.33;;;;;20.61;92.67;102255.09;5094940;27;45856;-73
2023/08/21 06:46:12;;;;;;;;;3.33;1.33;;;;;20.75;91.06;102265.78;5087636;27;45395;-73
2023/08/21 06:48:40;;;;;;;;;3.00;1.00;;;;;20.80;92.25;102276.25;5096857;27;45715;-73
2023/08/21 06:51:06;;;;;;;;;1.00;1.00;;;;;20.78;87.09;102270.09;5083086;27;45472;-73
2023/08/21 06:53:32;;;;;;;;;1.67;1.67;;;;;20.84;88.74;102269.72;5090270;27;45478;-73
2023/08/21 06:55:57;;;;;;;;;2.00;2.00;;;;;20.86;88.48;102269.59;5088709;27;45485;-73
2023/08/21 06:58:22;;;;;;;;;2.00;2.00;;;;;20.96;87.35;102278.78;5086226;27;46385;-73
2023/08/21 07:00:48;;;;;;;;;0.00;0.00;;;;;20.91;87.21;102273.69;5082392;27;45462;-73
2023/08/21 07:03:13;;;;;;;;;1.67;1.00;;;;;21.02;86.16;102281.03;5085491;27;45386;-73
2023/08/21 07:05:38;;;;;;;;;3.33;1.67;;;;;21.04;91.83;102265.69;5084897;27;45331;-73
2023/08/21 07:08:04;;;;;;;;;1.00;1.00;;;;;21.10;86.69;102268.84;5092305;27;45937;-74
2023/08/21 07:10:29;;;;;;;;;1.00;1.00;;;;;21.06;85.62;102252.97;5082287;27;45450;-73
2023/08/21 07:12:55;;;;;;;;;3.33;3.00;;;;;21.20;85.45;102256.47;5082407;27;45513;-73
2023/08/21 07:15:20;;;;;;;;;1.33;1.00;;;;;21.35;82.54;102275.22;5082047;27;46184;-74
2023/08/21 07:17:46;;;;;;;;;3.00;1.00;;;;;21.45;80.86;102279.00;5085091;27;45253;-74
2023/08/21 07:20:11;;;;;;;;;1.00;1.00;;;;;21.46;79.26;102261.91;5098256;27;45427;-73
2023/08/21 07:22:37;;;;;;;;;0.00;0.00;;;;;21.48;79.20;102263.50;5088590;27;45434;-74
2023/08/21 07:25:04;;;;;;;;;1.33;1.00;;;;;21.63;77.35;102278.56;5090949;27;45280;-74
2023/08/21 07:27:30;;;;;;;;;2.00;1.00;;;;;21.77;81.00;102286.56;5104391;27;47149;-74
2023/08/21 07:29:55;;;;;;;;;2.00;1.00;;;;;21.87;77.74;102296.69;5090640;27;45377;-73
2023/08/21 07:32:21;;;;;;;;;0.33;0.33;;;;;21.90;76.89;102270.41;5093989;27;45321;-74
2023/08/21 07:34:46;;;;;;;;;0.67;0.67;;;;;22.06;74.61;102286.34;5081029;27;45283;-74
2023/08/21 07:37:11;;;;;;;;;0.00;0.00;;;;;22.15;74.07;102291.94;5080541;28;54808;-74
2023/08/21 07:39:36;;;;;;;;;0.00;0.00;;;;;22.23;72.70;102289.56;5094129;27;45454;-74
2023/08/21 07:42:02;;;;;;;;;0.00;0.00;;;;;22.31;72.94;102289.00;5081508;27;45430;-74
2023/08/21 07:44:27;;;;;;;;;0.00;0.00;;;;;22.46;72.31;102287.88;5092704;27;45788;-74
2023/08/21 07:46:52;;;;;;;;;0.00;0.00;;;;;22.63;71.23;102298.28;5101259;27;45390;-74
2023/08/21 07:49:18;;;;;;;;;0.67;0.67;;;;;22.71;69.82;102297.72;5087975;27;45347;-73
2023/08/21 07:51:43;;;;;;;;;1.00;0.00;;;;;22.74;70.26;102289.44;5093953;27;45302;-74
2023/08/21 07:54:08;;;;;;;;;0.00;0.00;;;;;22.88;68.01;102293.78;5080692;27;45525;-73
2023/08/21 07:56:35;;;;;;;;;0.33;0.33;;;;;22.90;67.49;102286.44;5083745;27;45523;-74
2023/08/21 07:59:01;;;;;;;;;1.00;1.00;;;;;23.05;70.50;102280.75;5089898;27;45390;-74
2023/08/21 08:01:26;;;;;;;;;1.33;0.00;;;;;23.17;71.83;102279.78;5086988;27;45552;-74
2023/08/21 08:03:52;;;;;;;;;1.00;0.00;;;;;23.16;66.04;102270.00;5097732;27;45511;-74
2023/08/21 08:06:18;;;;;;;;;0.00;0.00;;;;;23.35;68.39;102289.19;5090130;27;45293;-74
2023/08/21 08:08:44;;;;;;;;;1.00;0.00;;;;;23.47;64.53;102287.41;5093499;27;45551;-74
2023/08/21 08:11:09;;;;;;;;;0.00;0.00;;;;;23.53;66.52;102295.03;5079974;27;45219;-74
2023/08/21 08:13:34;;;;;;;;;0.00;0.00;;;;;23.66;66.38;102294.91;5079562;27;45486;-74
2023/08/21 08:16:00;;;;;;;;;2.00;0.00;;;;;23.64;63.43;102299.59;5089929;27;46341;-74
2023/08/21 08:18:26;;;;;;;;;1.67;0.67;;;;;23.73;61.83;102301.56;5099836;27;45343;-73
2023/08/21 08:20:52;;;;;;;;;0.00;0.00;;;;;23.77;62.08;102281.44;5099493;27;45379;-74
2023/08/21 08:23:18;;;;;;;;;0.00;0.00;;;;;23.93;62.22;102286.47;5092019;27;45549;-74
2023/08/21 08:25:44;;;;;;;;;0.00;0.00;;;;;23.92;60.47;102264.00;5098391;27;45351;-74
2023/08/21 08:28:09;;;;;;;;;0.67;0.00;;;;;24.08;58.92;102296.94;5099220;27;45342;-74
2023/08/21 08:30:34;;;;;;;;;0.67;0.00;;;;;24.12;60.51;102284.91;5092288;27;45563;-74
2023/08/21 08:33:00;;;;;;;;;1.33;0.00;;;;;24.10;59.31;102264.38;5094133;27;45383;-74
2023/08/21 08:35:25;;;;;;;;;1.00;0.00;;;;;24.33;58.88;102291.28;5091984;27;45409;-74
2023/08/21 08:37:51;;;;;;;;;0.00;0.00;;;;;24.32;59.05;102272.47;5092803;27;45583;-74
2023/08/21 08:40:16;;;;;;;;;1.33;0.00;;;;;24.40;59.77;102263.75;5087640;27;45369;-74
2023/08/21 08:42:43;;;;;;;;;0.00;0.00;;;;;24.64;58.99;102276.09;5067077;27;45604;-74
2023/08/21 08:45:11;;;;;;;;;0.00;0.00;;;;;24.74;59.78;102265.34;5079749;27;45261;-73
2023/08/21 08:47:36;;;;;;;;;0.00;0.00;;;;;24.79;58.21;102249.59;5093068;27;45292;-74
2023/08/21 08:50:04;;;;;;;;;0.00;0.00;;;;;25.10;60.86;102275.81;5099228;27;45290;-74
2023/08/21 08:52:37;;;;;;;;;0.00;0.00;;;;;25.21;57.70;102274.91;5086695;27;45285;-73
2023/08/21 08:55:03;;;;;;;;;1.33;0.00;;;;;25.31;58.69;102275.84;5089910;27;46318;-74
2023/08/21 08:57:29;;;;;;;;;1.67;0.00;;;;;25.44;58.27;102268.38;5092298;27;45515;-74
2023/08/21 08:59:55;;;;;;;;;0.00;0.00;;;;;25.42;58.34;102258.69;5085624;27;45329;-74
2023/08/21 09:02:20;;;;;;;;;0.00;0.00;;;;;25.56;55.35;102274.59;5086040;28;45363;-74
2023/08/21 09:04:45;;;;;;;;;0.00;0.00;;;;;25.66;55.59;102272.81;5092027;27;46708;-74
2023/08/21 09:07:12;;;;;;;;;2.00;0.00;;;;;25.77;56.84;102275.44;5094462;27;45436;-74
2023/08/21 09:09:39;;;;;;;;;0.67;0.00;;;;;25.72;56.62;102256.88;5104517;27;45264;-74
2023/08/21 09:12:12;;;;;;;;;0.67;0.67;;;;;25.88;55.58;102262.66;5106261;27;45580;-74
2023/08/21 09:14:38;;;;;;;;;0.00;0.00;;;;;26.00;55.44;102262.56;5086067;27;45592;-74
2023/08/21 09:17:04;;;;;;;;;0.00;0.00;;;;;26.10;54.13;102255.34;5085805;28;45356;-74
2023/08/21 09:19:29;;;;;;;;;0.00;0.00;;;;;26.15;53.71;102258.47;5099327;27;45220;-74
2023/08/21 09:21:54;;;;;;;;;0.00;0.00;;;;;26.25;55.52;102245.84;5086010;27;45462;-75
2023/08/21 09:24:20;;;;;;;;;1.00;0.00;;;;;26.45;54.66;102263.88;5100296;27;48622;-74
2023/08/21 09:26:45;;;;;;;;;1.00;1.00;;;;;26.51;53.69;102257.03;5085572;28;53382;-74
2023/08/21 09:29:10;;;;;;;;;0.00;0.00;;;;;26.63;54.10;102256.78;5105238;27;45775;-74
2023/08/21 09:31:36;;;;;;;;;0.67;0.00;;;;;26.74;54.32;102250.34;5109997;27;45631;-75
2023/08/21 09:34:06;;;;;;;;;1.33;0.00;;;;;26.86;53.21;102251.97;5093184;27;45368;-74
2023/08/21 09:36:33;;;;;;;;;0.00;0.00;;;;;26.97;52.50;102249.09;5090175;27;44762;-74
2023/08/21 09:38:58;;;;;;;;;1.67;0.00;;;;;26.99;53.22;102246.25;5089353;27;45381;-74
2023/08/21 09:41:25;;;;;;;;;2.67;1.00;;;;;27.05;53.48;102242.97;5097901;27;45255;-74
2023/08/21 09:43:51;;;;;;;;;0.00;0.00;;;;;27.10;52.96;102251.50;5099721;27;45654;-74
2023/08/21 09:46:27;;;;;;;;;2.00;0.33;;;;;27.08;51.58;102243.53;5086526;27;45621;-74
2023/08/21 09:48:53;;;;;;;;;0.00;0.00;;;;;27.06;51.45;102250.13;5099714;27;45292;-74
2023/08/21 09:51:19;;;;;;;;;0.67;0.67;;;;;27.05;52.70;102245.69;5092956;27;45601;-74
2023/08/21 09:53:45;;;;;;;;;1.33;0.00;;;;;27.10;51.71;102237.94;5091973;27;46115;-74
2023/08/21 09:56:11;;;;;;;;;1.00;1.00;;;;;27.12;50.72;102244.09;5085563;27;45300;-74
2023/08/21 09:58:37;;;;;;;;;1.00;1.00;;;;;27.02;51.93;102221.53;5085354;28;45304;-74
2023/08/21 10:01:11;;;;;;;;;1.00;1.00;;;;;27.16;53.99;102237.38;5092412;27;45445;-74
2023/08/21 10:03:38;;;;;;;;;0.00;0.00;;;;;27.16;51.62;102232.78;5085177;27;45502;-74
2023/08/21 10:06:06;;;;;;;;;0.00;0.00;;;;;27.24;53.79;102245.66;5090527;27;45308;-74
2023/08/21 10:08:36;;;;;;;;;3.33;1.00;;;;;27.35;53.94;102240.94;5082298;27;45300;-74
2023/08/21 10:11:05;;;;;;;;;1.00;1.00;;;;;27.32;54.79;102222.16;5081954;27;45379;-74
2023/08/21 10:13:32;;;;;;;;;0.00;0.00;;;;;27.43;51.83;102222.03;5080980;27;46342;-74
2023/08/21 10:15:57;;;;;;;;;0.67;0.67;;;;;27.57;55.83;102239.75;5081683;27;45572;-74
2023/08/21 10:18:25;;;;;;;;;1.00;1.00;;;;;27.69;51.90;102241.28;5084421;27;45592;-74
2023/08/21 10:20:51;;;;;;;;;1.00;0.00;;;;;27.71;51.47;102228.41;5093071;27;45494;-73
2023/08/21 10:23:36;;;;;;;;;0.00;0.00;;;;;27.58;51.92;102211.56;5087283;27;45590;-75
2023/08/21 10:26:05;;;;;;;;;1.67;0.00;;;;;27.76;53.70;102230.66;5081577;28;45273;-74
2023/08/21 10:28:50;;;;;;;;;2.00;0.00;;;;;27.73;51.74;102218.22;5081797;27;45400;-74
2023/08/21 10:31:26;;;;;;;;;0.00;0.00;;;;;27.82;51.56;102217.31;5081021;27;45589;-74
2023/08/21 10:33:52;;;;;;;;;0.33;0.33;;;;;27.80;50.20;102223.91;5088880;27;47146;-74
2023/08/21 10:37:00;;;;;;;;;1.00;1.00;;;;;27.70;51.33;102212.22;5087847;27;45276;-74
2023/08/21 10:39:26;;;;;;;;;0.00;0.00;;;;;27.67;49.69;102205.22;5087518;27;45466;-74
2023/08/21 10:42:14;;;;;;;;;1.00;1.00;;;;;27.80;51.87;102216.63;5088689;27;45380;-74
2023/08/21 10:44:51;;;;;;;;;0.33;0.33;;;;;27.91;51.96;102210.13;5098347;27;46411;-74
2023/08/21 10:47:17;;;;;;;;;0.00;0.00;;;;;27.94;51.51;102212.56;5081148;27;45273;-74
2023/08/21 10:49:47;;;;;;;;;0.67;0.00;;;;;28.01;52.70;102204.66;5081489;27;45535;-74
2023/08/21 10:52:14;;;;;;;;;1.00;1.00;;;;;28.00;49.49;102189.31;5091879;27;45532;-74
2023/08/21 10:54:45;;;;;;;;;1.00;1.00;;;;;27.95;48.69;102200.66;5082054;27;46804;-75
2023/08/21 10:57:10;;;;;;;;;0.00;0.00;;;;;27.93;49.96;102186.34;5080696;27;45301;-74
2023/08/21 10:59:35;;;;;;;;;0.67;0.67;;;;;27.77;49.24;102181.56;5093861;27;45457;-74
2023/08/21 11:02:00;;;;;;;;;1.67;1.00;;;;;27.77;51.76;102176.13;5080954;27;45478;-74
2023/08/21 11:04:26;;;;;;;;;0.00;0.00;;;;;27.93;50.49;102199.94;5083331;27;47200;-74
2023/08/21 11:06:53;;;;;;;;;1.67;0.00;;;;;27.86;50.34;102179.81;5069458;27;45340;-74
2023/08/21 11:09:19;;;;;;;;;0.00;0.00;;;;;27.85;47.57;102176.22;5092985;27;45388;-74
2023/08/21 11:11:44;;;;;;;;;0.00;0.00;;;;;27.90;48.32;102189.38;5080700;27;45247;-74
2023/08/21 11:14:10;;;;;;;;;0.00;0.00;;;;;27.81;46.60;102171.25;5080385;27;45293;-74
2023/08/21 11:16:35;;;;;;;;;0.67;0.00;;;;;27.81;48.57;102168.53;5080350;27;48275;-74
2023/08/21 11:19:05;;;;;;;;;2.00;0.00;;;;;27.96;50.09;102183.34;5080423;27;45343;-74